sensor_id;sensor_type;location;lat;lon;timestamp;temperature;humidity
62573;DHT22;48626;51.678;5.806;2024-03-08T00:02:16;3.90;99.90
62573;DHT22;48626;51.678;5.806;2024-03-08T00:04:42;3.90;99.90
62573;DHT22;48626;51.678;5.806;2024-03-08T00:07:08;3.90;99.90
62573;DHT22;48626;51.678;5.806;2024-03-08T00:09:33;3.90;99.90
62573;DHT22;48626;51.678;5.806;2024-03-08T00:11:59;3.90;99.90
62573;DHT22;48626;51.678;5.806;2024-03-08T00:14:25;3.90;99.90
62573;DHT22;48626;51.678;5.806;2024-03-08T00:16:51;3.80;99.90
62573;DHT22;48626;51.678;5.806;2024-03-08T00:19:18;3.80;99.90
62573;DHT22;48626;51.678;5.806;2024-03-08T00:21:44;3.80;99.90
62573;DHT22;48626;51.678;5.806;2024-03-08T00:24:10;3.70;99.90
62573;DHT22;48626;51.678;5.806;2024-03-08T00:26:36;3.70;99.90
62573;DHT22;48626;51.678;5.806;2024-03-08T00:29:01;3.70;99.90
62573;DHT22;48626;51.678;5.806;2024-03-08T00:31:28;3.60;99.90
62573;DHT22;48626;51.678;5.806;2024-03-08T00:33:56;3.70;99.90
62573;DHT22;48626;51.678;5.806;2024-03-08T00:36:22;3.60;99.90
62573;DHT22;48626;51.678;5.806;2024-03-08T00:38:48;3.60;99.90
62573;DHT22;48626;51.678;5.806;2024-03-08T00:41:14;3.60;99.90
62573;DHT22;48626;51.678;5.806;2024-03-08T00:43:39;3.60;99.90
62573;DHT22;48626;51.678;5.806;2024-03-08T00:46:05;3.60;99.90
62573;DHT22;48626;51.678;5.806;2024-03-08T00:48:30;3.60;99.90
62573;DHT22;48626;51.678;5.806;2024-03-08T00:50:57;3.60;99.90
62573;DHT22;48626;51.678;5.806;2024-03-08T00:53:23;3.50;99.90
62573;DHT22;48626;51.678;5.806;2024-03-08T00:55:48;3.50;99.90
62573;DHT22;48626;51.678;5.806;2024-03-08T00:58:14;3.50;99.90
62573;DHT22;48626;51.678;5.806;2024-03-08T01:00:40;3.50;99.90
62573;DHT22;48626;51.678;5.806;2024-03-08T01:03:05;3.40;99.90
62573;DHT22;48626;51.678;5.806;2024-03-08T01:05:32;3.40;99.90
62573;DHT22;48626;51.678;5.806;2024-03-08T01:07:58;3.40;99.90
62573;DHT22;48626;51.678;5.806;2024-03-08T01:10:24;3.40;99.90
62573;DHT22;48626;51.678;5.806;2024-03-08T01:12:49;3.40;99.90
62573;DHT22;48626;51.678;5.806;2024-03-08T01:15:15;3.40;99.90
62573;DHT22;48626;51.678;5.806;2024-03-08T01:17:41;3.40;99.90
62573;DHT22;48626;51.678;5.806;2024-03-08T01:20:09;3.30;99.90
62573;DHT22;48626;51.678;5.806;2024-03-08T01:22:38;3.30;99.90
62573;DHT22;48626;51.678;5.806;2024-03-08T01:25:04;3.30;99.90
62573;DHT22;48626;51.678;5.806;2024-03-08T01:27:30;3.30;99.90
62573;DHT22;48626;51.678;5.806;2024-03-08T01:29:56;3.30;99.90
62573;DHT22;48626;51.678;5.806;2024-03-08T01:32:23;3.30;99.90
62573;DHT22;48626;51.678;5.806;2024-03-08T01:34:49;3.30;99.90
62573;DHT22;48626;51.678;5.806;2024-03-08T01:37:15;3.20;99.90
62573;DHT22;48626;51.678;5.806;2024-03-08T01:39:40;3.20;99.90
62573;DHT22;48626;51.678;5.806;2024-03-08T01:42:06;3.20;99.90
62573;DHT22;48626;51.678;5.806;2024-03-08T01:44:32;3.20;99.90
62573;DHT22;48626;51.678;5.806;2024-03-08T01:46:58;3.20;99.90
62573;DHT22;48626;51.678;5.806;2024-03-08T01:49:25;3.10;99.90
62573;DHT22;48626;51.678;5.806;2024-03-08T01:51:52;3.10;99.90
62573;DHT22;48626;51.678;5.806;2024-03-08T01:54:19;3.10;99.90
62573;DHT22;48626;51.678;5.806;2024-03-08T01:56:45;3.10;99.90
62573;DHT22;48626;51.678;5.806;2024-03-08T01:59:12;3.10;99.90
62573;DHT22;48626;51.678;5.806;2024-03-08T02:01:40;3.10;99.90
62573;DHT22;48626;51.678;5.806;2024-03-08T02:04:05;3.00;99.90
62573;DHT22;48626;51.678;5.806;2024-03-08T02:06:32;3.00;99.90
62573;DHT22;48626;51.678;5.806;2024-03-08T02:08:58;3.00;99.90
62573;DHT22;48626;51.678;5.806;2024-03-08T02:11:24;2.90;99.90
62573;DHT22;48626;51.678;5.806;2024-03-08T02:13:50;2.90;99.90
62573;DHT22;48626;51.678;5.806;2024-03-08T02:16:22;2.90;99.90
62573;DHT22;48626;51.678;5.806;2024-03-08T02:18:48;2.90;99.90
62573;DHT22;48626;51.678;5.806;2024-03-08T02:21:16;2.90;99.90
62573;DHT22;48626;51.678;5.806;2024-03-08T02:23:46;2.80;99.90
62573;DHT22;48626;51.678;5.806;2024-03-08T02:26:12;2.80;99.90
62573;DHT22;48626;51.678;5.806;2024-03-08T02:28:38;2.80;99.90
62573;DHT22;48626;51.678;5.806;2024-03-08T02:31:04;2.80;99.90
62573;DHT22;48626;51.678;5.806;2024-03-08T02:33:33;2.80;99.90
62573;DHT22;48626;51.678;5.806;2024-03-08T02:35:59;2.70;99.90
62573;DHT22;48626;51.678;5.806;2024-03-08T02:38:25;2.70;99.90
62573;DHT22;48626;51.678;5.806;2024-03-08T02:40:52;2.70;99.90
62573;DHT22;48626;51.678;5.806;2024-03-08T02:43:20;2.70;99.90
62573;DHT22;48626;51.678;5.806;2024-03-08T02:45:47;2.70;99.90
62573;DHT22;48626;51.678;5.806;2024-03-08T02:48:15;2.60;99.90
62573;DHT22;48626;51.678;5.806;2024-03-08T02:50:41;2.70;99.90
62573;DHT22;48626;51.678;5.806;2024-03-08T02:53:11;2.60;99.90
62573;DHT22;48626;51.678;5.806;2024-03-08T02:55:37;2.60;99.90
62573;DHT22;48626;51.678;5.806;2024-03-08T02:58:04;2.60;99.90
62573;DHT22;48626;51.678;5.806;2024-03-08T03:00:30;2.50;99.90
62573;DHT22;48626;51.678;5.806;2024-03-08T03:02:57;2.50;99.90
62573;DHT22;48626;51.678;5.806;2024-03-08T03:05:23;2.50;99.90
62573;DHT22;48626;51.678;5.806;2024-03-08T03:07:50;2.50;99.90
62573;DHT22;48626;51.678;5.806;2024-03-08T03:10:19;2.50;99.90
62573;DHT22;48626;51.678;5.806;2024-03-08T03:12:48;2.50;99.90
62573;DHT22;48626;51.678;5.806;2024-03-08T03:15:14;2.40;99.90
62573;DHT22;48626;51.678;5.806;2024-03-08T03:17:48;2.40;99.90
62573;DHT22;48626;51.678;5.806;2024-03-08T03:20:17;2.40;99.90
62573;DHT22;48626;51.678;5.806;2024-03-08T03:22:49;2.40;99.90
62573;DHT22;48626;51.678;5.806;2024-03-08T03:25:20;2.30;99.90
62573;DHT22;48626;51.678;5.806;2024-03-08T03:27:53;2.30;99.90
62573;DHT22;48626;51.678;5.806;2024-03-08T03:30:22;2.20;99.90
62573;DHT22;48626;51.678;5.806;2024-03-08T03:32:49;2.30;99.90
62573;DHT22;48626;51.678;5.806;2024-03-08T03:35:19;2.30;99.90
62573;DHT22;48626;51.678;5.806;2024-03-08T03:37:48;2.20;99.90
62573;DHT22;48626;51.678;5.806;2024-03-08T03:40:36;2.20;99.90
62573;DHT22;48626;51.678;5.806;2024-03-08T03:43:02;2.20;99.90
62573;DHT22;48626;51.678;5.806;2024-03-08T03:45:29;2.20;99.90
62573;DHT22;48626;51.678;5.806;2024-03-08T03:47:55;2.20;99.90
62573;DHT22;48626;51.678;5.806;2024-03-08T03:50:21;2.10;99.90
62573;DHT22;48626;51.678;5.806;2024-03-08T03:52:50;2.10;99.90
62573;DHT22;48626;51.678;5.806;2024-03-08T03:55:15;2.10;99.90
62573;DHT22;48626;51.678;5.806;2024-03-08T03:57:41;2.10;99.90
62573;DHT22;48626;51.678;5.806;2024-03-08T04:00:07;2.10;99.90
62573;DHT22;48626;51.678;5.806;2024-03-08T04:02:40;2.10;99.90
62573;DHT22;48626;51.678;5.806;2024-03-08T04:05:07;2.10;99.90
62573;DHT22;48626;51.678;5.806;2024-03-08T04:07:33;2.10;99.90
62573;DHT22;48626;51.678;5.806;2024-03-08T04:10:03;2.00;99.90
62573;DHT22;48626;51.678;5.806;2024-03-08T04:12:29;2.00;99.90
62573;DHT22;48626;51.678;5.806;2024-03-08T04:14:55;2.00;99.90
62573;DHT22;48626;51.678;5.806;2024-03-08T04:17:22;2.00;99.90
62573;DHT22;48626;51.678;5.806;2024-03-08T04:19:49;1.90;99.90
62573;DHT22;48626;51.678;5.806;2024-03-08T04:22:15;2.00;99.90
62573;DHT22;48626;51.678;5.806;2024-03-08T04:24:42;2.00;99.90
62573;DHT22;48626;51.678;5.806;2024-03-08T04:27:07;1.90;99.90
62573;DHT22;48626;51.678;5.806;2024-03-08T04:29:33;1.90;99.90
62573;DHT22;48626;51.678;5.806;2024-03-08T04:32:01;1.90;99.90
62573;DHT22;48626;51.678;5.806;2024-03-08T04:34:29;1.90;99.90
62573;DHT22;48626;51.678;5.806;2024-03-08T04:36:57;1.90;99.90
62573;DHT22;48626;51.678;5.806;2024-03-08T04:39:23;1.90;99.90
62573;DHT22;48626;51.678;5.806;2024-03-08T04:41:49;1.90;99.90
62573;DHT22;48626;51.678;5.806;2024-03-08T04:44:16;1.90;99.90
62573;DHT22;48626;51.678;5.806;2024-03-08T04:46:43;1.90;99.90
62573;DHT22;48626;51.678;5.806;2024-03-08T04:49:09;1.90;99.90
62573;DHT22;48626;51.678;5.806;2024-03-08T04:51:37;1.90;99.90
62573;DHT22;48626;51.678;5.806;2024-03-08T04:54:03;1.90;99.90
62573;DHT22;48626;51.678;5.806;2024-03-08T04:56:30;1.90;99.90
62573;DHT22;48626;51.678;5.806;2024-03-08T04:58:56;1.90;99.90
62573;DHT22;48626;51.678;5.806;2024-03-08T05:01:21;1.90;99.90
62573;DHT22;48626;51.678;5.806;2024-03-08T05:03:47;1.90;99.90
62573;DHT22;48626;51.678;5.806;2024-03-08T05:06:16;1.90;99.90
62573;DHT22;48626;51.678;5.806;2024-03-08T05:08:41;1.90;99.90
62573;DHT22;48626;51.678;5.806;2024-03-08T05:11:07;1.90;99.90
62573;DHT22;48626;51.678;5.806;2024-03-08T05:13:33;1.90;99.90
62573;DHT22;48626;51.678;5.806;2024-03-08T05:16:00;1.80;99.90
62573;DHT22;48626;51.678;5.806;2024-03-08T05:18:26;1.80;99.90
62573;DHT22;48626;51.678;5.806;2024-03-08T05:20:54;1.80;99.90
62573;DHT22;48626;51.678;5.806;2024-03-08T05:23:19;1.80;99.90
62573;DHT22;48626;51.678;5.806;2024-03-08T05:25:46;1.80;99.90
62573;DHT22;48626;51.678;5.806;2024-03-08T05:28:14;1.70;99.90
62573;DHT22;48626;51.678;5.806;2024-03-08T05:30:40;1.70;99.90
62573;DHT22;48626;51.678;5.806;2024-03-08T05:33:06;1.70;99.90
62573;DHT22;48626;51.678;5.806;2024-03-08T05:35:36;1.70;99.90
62573;DHT22;48626;51.678;5.806;2024-03-08T05:38:01;1.70;99.90
62573;DHT22;48626;51.678;5.806;2024-03-08T05:40:27;1.70;99.90
62573;DHT22;48626;51.678;5.806;2024-03-08T05:42:57;1.60;99.90
62573;DHT22;48626;51.678;5.806;2024-03-08T05:45:23;1.70;99.90
62573;DHT22;48626;51.678;5.806;2024-03-08T05:47:50;1.60;99.90
62573;DHT22;48626;51.678;5.806;2024-03-08T05:50:17;1.60;99.90
62573;DHT22;48626;51.678;5.806;2024-03-08T05:52:43;1.60;99.90
62573;DHT22;48626;51.678;5.806;2024-03-08T05:55:09;1.60;99.90
62573;DHT22;48626;51.678;5.806;2024-03-08T05:57:35;1.60;99.90
62573;DHT22;48626;51.678;5.806;2024-03-08T06:00:04;1.60;99.90
62573;DHT22;48626;51.678;5.806;2024-03-08T06:02:30;1.60;99.90
62573;DHT22;48626;51.678;5.806;2024-03-08T06:04:55;1.60;99.90
62573;DHT22;48626;51.678;5.806;2024-03-08T06:07:21;1.60;99.90
62573;DHT22;48626;51.678;5.806;2024-03-08T06:09:47;1.60;99.90
62573;DHT22;48626;51.678;5.806;2024-03-08T06:12:13;1.60;99.90
62573;DHT22;48626;51.678;5.806;2024-03-08T06:14:44;1.60;99.90
62573;DHT22;48626;51.678;5.806;2024-03-08T06:17:10;1.60;99.90
62573;DHT22;48626;51.678;5.806;2024-03-08T06:19:37;1.60;99.90
62573;DHT22;48626;51.678;5.806;2024-03-08T06:22:02;1.50;99.90
62573;DHT22;48626;51.678;5.806;2024-03-08T06:24:31;1.50;99.90
62573;DHT22;48626;51.678;5.806;2024-03-08T06:26:57;1.50;99.90
62573;DHT22;48626;51.678;5.806;2024-03-08T06:29:23;1.60;99.90
62573;DHT22;48626;51.678;5.806;2024-03-08T06:31:49;1.60;99.90
62573;DHT22;48626;51.678;5.806;2024-03-08T06:34:15;1.60;99.90
62573;DHT22;48626;51.678;5.806;2024-03-08T06:36:41;1.60;99.90
62573;DHT22;48626;51.678;5.806;2024-03-08T06:39:06;1.60;99.90
62573;DHT22;48626;51.678;5.806;2024-03-08T06:41:38;1.60;99.90
62573;DHT22;48626;51.678;5.806;2024-03-08T06:44:04;1.70;99.90
62573;DHT22;48626;51.678;5.806;2024-03-08T06:46:29;1.70;99.90
62573;DHT22;48626;51.678;5.806;2024-03-08T06:48:55;1.70;99.90
62573;DHT22;48626;51.678;5.806;2024-03-08T06:51:21;1.70;99.90
62573;DHT22;48626;51.678;5.806;2024-03-08T06:53:47;1.80;99.90
62573;DHT22;48626;51.678;5.806;2024-03-08T06:56:13;1.80;99.90
62573;DHT22;48626;51.678;5.806;2024-03-08T06:58:39;1.80;99.90
62573;DHT22;48626;51.678;5.806;2024-03-08T07:01:05;1.90;99.90
62573;DHT22;48626;51.678;5.806;2024-03-08T07:03:33;1.90;99.90
62573;DHT22;48626;51.678;5.806;2024-03-08T07:05:58;2.00;99.90
62573;DHT22;48626;51.678;5.806;2024-03-08T07:08:25;2.00;99.90
62573;DHT22;48626;51.678;5.806;2024-03-08T07:10:53;2.00;99.90
62573;DHT22;48626;51.678;5.806;2024-03-08T07:13:18;2.10;99.90
62573;DHT22;48626;51.678;5.806;2024-03-08T07:15:44;2.20;99.90
62573;DHT22;48626;51.678;5.806;2024-03-08T07:18:11;2.20;99.90
62573;DHT22;48626;51.678;5.806;2024-03-08T07:20:40;2.30;99.90
62573;DHT22;48626;51.678;5.806;2024-03-08T07:23:06;2.40;99.90
62573;DHT22;48626;51.678;5.806;2024-03-08T07:25:31;2.40;99.90
62573;DHT22;48626;51.678;5.806;2024-03-08T07:27:57;2.50;99.90
62573;DHT22;48626;51.678;5.806;2024-03-08T07:30:24;2.50;99.90
62573;DHT22;48626;51.678;5.806;2024-03-08T07:33:09;2.60;99.90
62573;DHT22;48626;51.678;5.806;2024-03-08T07:35:38;2.70;99.90
62573;DHT22;48626;51.678;5.806;2024-03-08T07:38:08;2.80;99.90
62573;DHT22;48626;51.678;5.806;2024-03-08T07:40:41;2.90;99.90
62573;DHT22;48626;51.678;5.806;2024-03-08T07:43:10;2.90;99.90
62573;DHT22;48626;51.678;5.806;2024-03-08T07:45:37;3.00;99.90
62573;DHT22;48626;51.678;5.806;2024-03-08T07:48:03;3.10;99.90
62573;DHT22;48626;51.678;5.806;2024-03-08T07:50:37;3.20;99.90
62573;DHT22;48626;51.678;5.806;2024-03-08T07:53:05;3.30;99.90
62573;DHT22;48626;51.678;5.806;2024-03-08T07:55:32;3.40;99.90
62573;DHT22;48626;51.678;5.806;2024-03-08T07:57:59;3.40;99.90
62573;DHT22;48626;51.678;5.806;2024-03-08T08:00:25;3.50;99.90
62573;DHT22;48626;51.678;5.806;2024-03-08T08:02:53;3.60;99.90
62573;DHT22;48626;51.678;5.806;2024-03-08T08:05:19;3.70;99.90
62573;DHT22;48626;51.678;5.806;2024-03-08T08:07:45;3.80;99.90
62573;DHT22;48626;51.678;5.806;2024-03-08T08:10:15;3.90;99.90
62573;DHT22;48626;51.678;5.806;2024-03-08T08:12:51;4.00;99.90
62573;DHT22;48626;51.678;5.806;2024-03-08T08:15:19;4.10;99.90
62573;DHT22;48626;51.678;5.806;2024-03-08T08:17:45;4.20;99.90
62573;DHT22;48626;51.678;5.806;2024-03-08T08:20:12;4.30;99.90
62573;DHT22;48626;51.678;5.806;2024-03-08T08:22:39;4.30;99.90
62573;DHT22;48626;51.678;5.806;2024-03-08T08:25:08;4.40;99.90
62573;DHT22;48626;51.678;5.806;2024-03-08T08:27:34;4.50;99.90
62573;DHT22;48626;51.678;5.806;2024-03-08T08:30:02;4.60;99.90
62573;DHT22;48626;51.678;5.806;2024-03-08T08:32:34;4.70;99.90
62573;DHT22;48626;51.678;5.806;2024-03-08T08:35:00;4.80;99.90
62573;DHT22;48626;51.678;5.806;2024-03-08T08:37:27;4.90;99.90
62573;DHT22;48626;51.678;5.806;2024-03-08T08:39:54;4.90;99.90
62573;DHT22;48626;51.678;5.806;2024-03-08T08:42:19;5.00;99.90
62573;DHT22;48626;51.678;5.806;2024-03-08T08:44:45;5.10;99.90
62573;DHT22;48626;51.678;5.806;2024-03-08T08:47:11;5.20;99.90
62573;DHT22;48626;51.678;5.806;2024-03-08T08:49:38;5.30;99.90
62573;DHT22;48626;51.678;5.806;2024-03-08T08:52:04;5.30;99.90
62573;DHT22;48626;51.678;5.806;2024-03-08T08:54:30;5.40;99.90
62573;DHT22;48626;51.678;5.806;2024-03-08T08:56:56;5.50;99.90
62573;DHT22;48626;51.678;5.806;2024-03-08T08:59:22;5.60;99.90
62573;DHT22;48626;51.678;5.806;2024-03-08T09:01:50;5.70;99.90
62573;DHT22;48626;51.678;5.806;2024-03-08T09:04:19;5.80;99.90
62573;DHT22;48626;51.678;5.806;2024-03-08T09:06:45;5.90;99.90
62573;DHT22;48626;51.678;5.806;2024-03-08T09:09:10;6.00;99.90
62573;DHT22;48626;51.678;5.806;2024-03-08T09:11:39;6.00;99.90
62573;DHT22;48626;51.678;5.806;2024-03-08T09:14:07;6.10;99.90
62573;DHT22;48626;51.678;5.806;2024-03-08T09:16:33;6.20;99.90
62573;DHT22;48626;51.678;5.806;2024-03-08T09:18:59;6.30;99.90
62573;DHT22;48626;51.678;5.806;2024-03-08T09:21:25;6.40;99.90
62573;DHT22;48626;51.678;5.806;2024-03-08T09:23:51;6.60;99.90
62573;DHT22;48626;51.678;5.806;2024-03-08T09:26:17;6.70;99.90
62573;DHT22;48626;51.678;5.806;2024-03-08T09:28:43;6.80;99.90
62573;DHT22;48626;51.678;5.806;2024-03-08T09:31:09;6.90;99.90
62573;DHT22;48626;51.678;5.806;2024-03-08T09:33:37;6.90;99.90
62573;DHT22;48626;51.678;5.806;2024-03-08T09:36:06;7.00;99.90
62573;DHT22;48626;51.678;5.806;2024-03-08T09:38:33;7.10;99.90
62573;DHT22;48626;51.678;5.806;2024-03-08T09:41:00;7.30;99.90
62573;DHT22;48626;51.678;5.806;2024-03-08T09:43:30;7.40;99.90
62573;DHT22;48626;51.678;5.806;2024-03-08T09:45:58;7.50;99.90
62573;DHT22;48626;51.678;5.806;2024-03-08T09:48:25;7.70;99.90
62573;DHT22;48626;51.678;5.806;2024-03-08T09:50:51;7.80;99.90
62573;DHT22;48626;51.678;5.806;2024-03-08T09:53:17;8.00;99.90
62573;DHT22;48626;51.678;5.806;2024-03-08T09:55:44;8.10;99.90
62573;DHT22;48626;51.678;5.806;2024-03-08T09:58:15;8.40;99.90
62573;DHT22;48626;51.678;5.806;2024-03-08T10:00:47;8.80;99.90
62573;DHT22;48626;51.678;5.806;2024-03-08T10:03:13;9.10;99.90
62573;DHT22;48626;51.678;5.806;2024-03-08T10:05:41;9.50;99.90
62573;DHT22;48626;51.678;5.806;2024-03-08T10:08:07;9.70;99.90
62573;DHT22;48626;51.678;5.806;2024-03-08T10:10:36;9.80;99.90
62573;DHT22;48626;51.678;5.806;2024-03-08T10:13:09;9.90;99.90
62573;DHT22;48626;51.678;5.806;2024-03-08T10:15:36;10.10;99.90
62573;DHT22;48626;51.678;5.806;2024-03-08T10:18:02;10.30;99.90
62573;DHT22;48626;51.678;5.806;2024-03-08T10:20:30;10.50;99.90
62573;DHT22;48626;51.678;5.806;2024-03-08T10:23:00;10.80;99.90
62573;DHT22;48626;51.678;5.806;2024-03-08T10:25:29;11.10;99.90
62573;DHT22;48626;51.678;5.806;2024-03-08T10:27:56;11.20;99.90
62573;DHT22;48626;51.678;5.806;2024-03-08T10:30:22;11.40;99.90
62573;DHT22;48626;51.678;5.806;2024-03-08T10:32:48;11.60;99.90
62573;DHT22;48626;51.678;5.806;2024-03-08T10:35:14;11.70;99.90
62573;DHT22;48626;51.678;5.806;2024-03-08T10:37:47;11.80;99.90
62573;DHT22;48626;51.678;5.806;2024-03-08T10:40:17;11.90;99.90
62573;DHT22;48626;51.678;5.806;2024-03-08T10:43:00;12.10;99.90
62573;DHT22;48626;51.678;5.806;2024-03-08T10:45:33;12.50;99.90
62573;DHT22;48626;51.678;5.806;2024-03-08T10:50:54;12.70;99.90
62573;DHT22;48626;51.678;5.806;2024-03-08T10:53:23;13.20;99.90
62573;DHT22;48626;51.678;5.806;2024-03-08T10:55:50;13.50;99.90
62573;DHT22;48626;51.678;5.806;2024-03-08T10:58:22;13.70;99.90
62573;DHT22;48626;51.678;5.806;2024-03-08T11:00:53;13.80;99.90
62573;DHT22;48626;51.678;5.806;2024-03-08T11:06:08;14.50;99.90
62573;DHT22;48626;51.678;5.806;2024-03-08T11:08:37;14.70;99.90
62573;DHT22;48626;51.678;5.806;2024-03-08T11:11:04;14.70;99.90
62573;DHT22;48626;51.678;5.806;2024-03-08T11:16:10;15.00;99.90
62573;DHT22;48626;51.678;5.806;2024-03-08T11:18:36;15.20;99.90
62573;DHT22;48626;51.678;5.806;2024-03-08T11:21:08;15.30;99.90
62573;DHT22;48626;51.678;5.806;2024-03-08T11:23:40;15.50;99.90
62573;DHT22;48626;51.678;5.806;2024-03-08T11:26:20;15.50;99.90
62573;DHT22;48626;51.678;5.806;2024-03-08T11:28:46;15.80;99.90
62573;DHT22;48626;51.678;5.806;2024-03-08T11:33:40;16.00;99.90
62573;DHT22;48626;51.678;5.806;2024-03-08T11:36:24;16.20;99.90
62573;DHT22;48626;51.678;5.806;2024-03-08T11:38:51;16.50;99.90
62573;DHT22;48626;51.678;5.806;2024-03-08T11:41:25;16.60;99.90
62573;DHT22;48626;51.678;5.806;2024-03-08T11:44:05;16.80;99.90
62573;DHT22;48626;51.678;5.806;2024-03-08T11:46:31;16.90;99.90
62573;DHT22;48626;51.678;5.806;2024-03-08T11:48:57;17.00;99.90
62573;DHT22;48626;51.678;5.806;2024-03-08T11:51:23;17.10;99.90
62573;DHT22;48626;51.678;5.806;2024-03-08T11:53:52;17.30;99.90
62573;DHT22;48626;51.678;5.806;2024-03-08T11:56:18;17.90;99.90
62573;DHT22;48626;51.678;5.806;2024-03-08T11:58:56;18.10;99.90
62573;DHT22;48626;51.678;5.806;2024-03-08T12:01:23;18.00;99.90
62573;DHT22;48626;51.678;5.806;2024-03-08T12:03:56;17.70;99.90
62573;DHT22;48626;51.678;5.806;2024-03-08T12:06:37;17.80;99.90
62573;DHT22;48626;51.678;5.806;2024-03-08T12:09:11;17.70;99.90
62573;DHT22;48626;51.678;5.806;2024-03-08T12:11:38;17.50;99.90
62573;DHT22;48626;51.678;5.806;2024-03-08T12:14:04;17.60;99.90
62573;DHT22;48626;51.678;5.806;2024-03-08T12:16:32;17.30;99.90
62573;DHT22;48626;51.678;5.806;2024-03-08T12:18:58;17.40;99.90
62573;DHT22;48626;51.678;5.806;2024-03-08T12:21:26;18.10;99.90
62573;DHT22;48626;51.678;5.806;2024-03-08T12:24:05;18.20;99.90
62573;DHT22;48626;51.678;5.806;2024-03-08T12:26:36;18.10;99.90
62573;DHT22;48626;51.678;5.806;2024-03-08T12:29:18;18.00;99.90
62573;DHT22;48626;51.678;5.806;2024-03-08T12:31:46;17.80;99.90
62573;DHT22;48626;51.678;5.806;2024-03-08T12:34:13;17.70;99.90
62573;DHT22;48626;51.678;5.806;2024-03-08T12:36:47;17.70;99.90
62573;DHT22;48626;51.678;5.806;2024-03-08T12:39:17;17.50;99.90
62573;DHT22;48626;51.678;5.806;2024-03-08T12:41:47;17.50;99.90
62573;DHT22;48626;51.678;5.806;2024-03-08T12:44:13;17.30;99.90
62573;DHT22;48626;51.678;5.806;2024-03-08T12:46:38;17.20;99.90
62573;DHT22;48626;51.678;5.806;2024-03-08T12:49:09;17.60;99.90
62573;DHT22;48626;51.678;5.806;2024-03-08T12:51:38;18.10;99.90
62573;DHT22;48626;51.678;5.806;2024-03-08T12:54:07;17.90;99.90
62573;DHT22;48626;51.678;5.806;2024-03-08T12:56:36;17.50;99.90
62573;DHT22;48626;51.678;5.806;2024-03-08T12:59:04;17.30;99.90
62573;DHT22;48626;51.678;5.806;2024-03-08T13:01:31;17.30;99.90
62573;DHT22;48626;51.678;5.806;2024-03-08T13:04:00;17.50;99.90
62573;DHT22;48626;51.678;5.806;2024-03-08T13:06:28;17.80;99.90
62573;DHT22;48626;51.678;5.806;2024-03-08T13:08:54;17.80;99.90
62573;DHT22;48626;51.678;5.806;2024-03-08T13:11:24;17.80;99.90
62573;DHT22;48626;51.678;5.806;2024-03-08T13:13:50;18.10;99.90
62573;DHT22;48626;51.678;5.806;2024-03-08T13:16:17;18.60;99.90
62573;DHT22;48626;51.678;5.806;2024-03-08T13:18:47;18.60;99.90
62573;DHT22;48626;51.678;5.806;2024-03-08T13:21:16;18.70;99.90
62573;DHT22;48626;51.678;5.806;2024-03-08T13:23:45;19.10;99.90
62573;DHT22;48626;51.678;5.806;2024-03-08T13:26:13;19.10;99.90
62573;DHT22;48626;51.678;5.806;2024-03-08T13:28:48;19.30;99.90
62573;DHT22;48626;51.678;5.806;2024-03-08T13:31:21;19.30;99.90
62573;DHT22;48626;51.678;5.806;2024-03-08T13:33:47;19.20;99.90
62573;DHT22;48626;51.678;5.806;2024-03-08T13:36:14;19.30;99.90
62573;DHT22;48626;51.678;5.806;2024-03-08T13:38:44;19.10;99.90
62573;DHT22;48626;51.678;5.806;2024-03-08T13:41:11;19.00;99.90
62573;DHT22;48626;51.678;5.806;2024-03-08T13:43:37;18.90;99.90
62573;DHT22;48626;51.678;5.806;2024-03-08T13:46:05;18.80;99.90
62573;DHT22;48626;51.678;5.806;2024-03-08T13:48:35;18.50;99.90
62573;DHT22;48626;51.678;5.806;2024-03-08T13:51:03;18.20;99.90
62573;DHT22;48626;51.678;5.806;2024-03-08T13:53:30;18.00;99.90
62573;DHT22;48626;51.678;5.806;2024-03-08T13:55:56;17.30;99.90
62573;DHT22;48626;51.678;5.806;2024-03-08T13:58:22;17.30;99.90
62573;DHT22;48626;51.678;5.806;2024-03-08T14:00:47;16.50;99.90
62573;DHT22;48626;51.678;5.806;2024-03-08T14:03:14;15.70;99.90
62573;DHT22;48626;51.678;5.806;2024-03-08T14:05:40;15.00;99.90
62573;DHT22;48626;51.678;5.806;2024-03-08T14:08:07;14.50;99.90
62573;DHT22;48626;51.678;5.806;2024-03-08T14:10:34;14.10;99.90
62573;DHT22;48626;51.678;5.806;2024-03-08T14:13:00;13.80;99.90
62573;DHT22;48626;51.678;5.806;2024-03-08T14:15:28;13.40;99.90
62573;DHT22;48626;51.678;5.806;2024-03-08T14:17:55;13.10;99.90
62573;DHT22;48626;51.678;5.806;2024-03-08T14:20:21;13.00;99.90
62573;DHT22;48626;51.678;5.806;2024-03-08T14:22:56;12.80;99.90
62573;DHT22;48626;51.678;5.806;2024-03-08T14:25:25;12.60;99.90
62573;DHT22;48626;51.678;5.806;2024-03-08T14:27:52;12.50;99.90
62573;DHT22;48626;51.678;5.806;2024-03-08T14:30:24;12.40;99.90
62573;DHT22;48626;51.678;5.806;2024-03-08T14:33:04;12.40;99.90
62573;DHT22;48626;51.678;5.806;2024-03-08T14:35:31;12.30;99.90
62573;DHT22;48626;51.678;5.806;2024-03-08T14:37:57;12.20;99.90
62573;DHT22;48626;51.678;5.806;2024-03-08T14:40:24;12.10;99.90
62573;DHT22;48626;51.678;5.806;2024-03-08T14:42:51;12.10;99.90
62573;DHT22;48626;51.678;5.806;2024-03-08T14:45:17;12.10;99.90
62573;DHT22;48626;51.678;5.806;2024-03-08T14:47:49;12.10;99.90
62573;DHT22;48626;51.678;5.806;2024-03-08T14:50:19;12.00;99.90
62573;DHT22;48626;51.678;5.806;2024-03-08T14:52:45;12.00;99.90
62573;DHT22;48626;51.678;5.806;2024-03-08T14:55:15;11.90;99.90
62573;DHT22;48626;51.678;5.806;2024-03-08T14:57:41;11.90;99.90
62573;DHT22;48626;51.678;5.806;2024-03-08T15:00:08;11.90;99.90
62573;DHT22;48626;51.678;5.806;2024-03-08T15:02:42;11.90;99.90
62573;DHT22;48626;51.678;5.806;2024-03-08T15:05:08;11.90;99.90
62573;DHT22;48626;51.678;5.806;2024-03-08T15:07:40;11.90;99.90
62573;DHT22;48626;51.678;5.806;2024-03-08T15:10:09;11.80;99.90
62573;DHT22;48626;51.678;5.806;2024-03-08T15:12:40;11.80;99.90
62573;DHT22;48626;51.678;5.806;2024-03-08T15:15:09;11.80;99.90
62573;DHT22;48626;51.678;5.806;2024-03-08T15:17:37;11.70;99.90
62573;DHT22;48626;51.678;5.806;2024-03-08T15:20:08;11.70;99.90
62573;DHT22;48626;51.678;5.806;2024-03-08T15:22:43;11.70;99.90
62573;DHT22;48626;51.678;5.806;2024-03-08T15:25:09;11.70;99.90
62573;DHT22;48626;51.678;5.806;2024-03-08T15:27:38;11.70;99.90
62573;DHT22;48626;51.678;5.806;2024-03-08T15:30:05;11.60;99.90
62573;DHT22;48626;51.678;5.806;2024-03-08T15:32:33;11.60;99.90
62573;DHT22;48626;51.678;5.806;2024-03-08T15:35:00;11.50;99.90
62573;DHT22;48626;51.678;5.806;2024-03-08T15:37:26;11.50;99.90
62573;DHT22;48626;51.678;5.806;2024-03-08T15:39:53;11.50;99.90
62573;DHT22;48626;51.678;5.806;2024-03-08T15:42:19;11.40;99.90
62573;DHT22;48626;51.678;5.806;2024-03-08T15:44:44;11.40;99.90
62573;DHT22;48626;51.678;5.806;2024-03-08T15:47:10;11.40;99.90
62573;DHT22;48626;51.678;5.806;2024-03-08T15:49:37;11.40;99.90
62573;DHT22;48626;51.678;5.806;2024-03-08T15:52:02;11.30;99.90
62573;DHT22;48626;51.678;5.806;2024-03-08T15:54:29;11.30;99.90